createdAt,value
2023-04-25T00:03:15.899Z,50.25
2023-04-25T00:07:16.390Z,50.67
2023-04-25T00:11:16.567Z,50.79
2023-04-25T00:15:17.399Z,50.90
2023-04-25T00:19:20.128Z,50.84
2023-04-25T00:23:21.332Z,50.92
2023-04-25T00:27:21.464Z,50.92
2023-04-25T00:31:22.016Z,50.96
2023-04-25T00:35:24.785Z,50.74
2023-04-25T00:39:24.940Z,50.62
2023-04-25T00:43:25.474Z,50.28
2023-04-25T00:47:26.348Z,50.07
2023-04-25T00:51:31.676Z,50.58
2023-04-25T00:55:32.624Z,50.54
2023-04-25T00:59:33.586Z,50.70
2023-04-25T01:03:37.868Z,51.19
2023-04-25T01:07:41.857Z,50.97
2023-04-25T01:11:42.047Z,51.27
2023-04-25T01:15:42.310Z,51.28
2023-04-25T01:19:43.207Z,51.48
2023-04-25T01:23:46.984Z,50.85
2023-04-25T01:27:48.128Z,50.75
2023-04-25T01:31:49.629Z,50.81
2023-04-25T01:35:49.882Z,50.91
2023-04-25T01:39:56.477Z,51.85
2023-04-25T01:43:56.828Z,51.48
2023-04-25T01:48:00.550Z,52.42
2023-04-25T01:52:00.911Z,52.25
2023-04-25T01:56:03.633Z,53.54
2023-04-25T02:00:11.401Z,53.09
2023-04-25T02:04:14.346Z,54.98
2023-04-25T02:08:15.330Z,55.89
2023-04-25T02:12:18.376Z,55.96
2023-04-25T02:16:33.809Z,55.62
2023-04-25T02:20:36.026Z,56.26
2023-04-25T02:24:36.362Z,55.77
2023-04-25T02:28:39.566Z,55.86
2023-04-25T02:32:40.196Z,55.63
2023-04-25T02:36:40.757Z,55.80
2023-04-25T02:40:41.812Z,56.29
2023-04-25T02:44:44.572Z,56.60
2023-04-25T02:48:44.839Z,56.81
2023-04-25T02:52:44.978Z,56.33
2023-04-25T02:56:49.817Z,57.27
2023-04-25T03:00:59.070Z,57.09
2023-04-25T03:04:59.310Z,57.66
2023-04-25T03:09:01.113Z,56.93
2023-04-25T03:13:01.352Z,57.28
2023-04-25T03:17:04.254Z,56.92
2023-04-25T03:21:04.741Z,56.87
2023-04-25T03:25:05.364Z,56.89
2023-04-25T03:29:05.568Z,57.38
2023-04-25T03:33:08.505Z,57.59
2023-04-25T03:37:09.055Z,57.03
2023-04-25T03:41:12.289Z,56.87
2023-04-25T03:45:16.647Z,56.68
2023-04-25T03:49:20.660Z,57.57
2023-04-25T03:53:31.680Z,57.95
2023-04-25T03:57:50.488Z,58.09
2023-04-25T04:01:51.022Z,57.77
2023-04-25T04:05:54.443Z,57.43
2023-04-25T04:09:54.988Z,57.54
2023-04-25T04:14:01.448Z,57.17
2023-04-25T04:18:03.970Z,56.53
2023-04-25T04:22:07.954Z,56.48
2023-04-25T04:26:09.726Z,57.00
2023-04-25T04:30:32.155Z,56.53
2023-04-25T04:34:35.023Z,56.25
2023-04-25T04:38:40.072Z,56.36
2023-04-25T04:42:43.895Z,55.34
2023-04-25T04:47:09.541Z,55.38
2023-04-25T04:51:30.244Z,55.12
2023-04-25T04:55:42.296Z,55.43
2023-04-25T05:00:04.091Z,55.04
2023-04-25T05:04:29.659Z,55.04
2023-04-25T05:08:51.303Z,54.15
2023-04-25T05:13:14.066Z,54.07
2023-04-25T05:17:23.304Z,55.57
2023-04-25T05:21:42.165Z,54.46
2023-04-25T05:25:50.043Z,54.95
2023-04-25T05:30:14.638Z,55.89
2023-04-25T05:34:31.434Z,55.55
2023-04-25T05:38:37.721Z,54.74
2023-04-25T05:43:00.916Z,54.44
2023-04-25T05:47:19.780Z,54.33
2023-04-25T05:51:40.259Z,54.46
2023-04-25T05:56:00.980Z,55.16
2023-04-25T06:00:02.662Z,55.12
2023-04-25T06:04:32.178Z,53.78
2023-04-25T06:08:32.592Z,54.10
2023-04-25T06:12:32.951Z,53.71
2023-04-25T06:16:33.361Z,53.76
2023-04-25T06:20:36.572Z,54.11
2023-04-25T06:24:37.490Z,54.70
2023-04-25T06:28:38.381Z,55.63
2023-04-25T06:32:38.971Z,54.99
2023-04-25T06:36:42.639Z,54.55
2023-04-25T06:40:46.097Z,55.66
2023-04-25T06:44:46.310Z,54.38
2023-04-25T06:48:47.201Z,56.43
2023-04-25T06:52:49.919Z,55.59
2023-04-25T06:56:51.644Z,55.98
2023-04-25T07:00:52.024Z,55.62
2023-04-25T07:04:56.513Z,55.33
2023-04-25T07:08:59.405Z,55.24
2023-04-25T07:12:59.874Z,56.53
2023-04-25T07:17:00.703Z,58.34
2023-04-25T07:21:03.168Z,57.49
2023-04-25T07:25:09.753Z,56.34
2023-04-25T07:29:10.038Z,56.34
2023-04-25T07:33:10.245Z,56.77
2023-04-25T07:37:10.478Z,55.71
2023-04-25T07:41:23.664Z,56.17
2023-04-25T07:45:24.779Z,58.01
2023-04-25T07:49:25.968Z,56.38
2023-04-25T07:53:26.457Z,55.92
2023-04-25T07:57:34.689Z,54.87
2023-04-25T08:01:36.637Z,54.47
2023-04-25T08:05:39.586Z,53.52
2023-04-25T08:09:40.991Z,53.25
2023-04-25T08:13:49.956Z,52.33
2023-04-25T08:17:50.493Z,52.25
2023-04-25T08:21:53.021Z,52.40
2023-04-25T08:26:00.340Z,51.08
2023-04-25T08:30:06.730Z,51.74
2023-04-25T08:34:07.167Z,50.72
2023-04-25T08:38:26.486Z,50.39
2023-04-25T08:42:31.272Z,53.04
2023-04-25T08:46:35.935Z,54.18
2023-04-25T08:50:55.729Z,53.86
2023-04-25T08:54:59.191Z,54.29
2023-04-25T08:59:02.217Z,54.00
2023-04-25T09:03:07.113Z,54.06
2023-04-25T09:07:07.938Z,53.69
2023-04-25T09:11:08.442Z,53.23
2023-04-25T09:15:12.056Z,53.30
2023-04-25T09:19:42.056Z,51.58
2023-04-25T09:23:56.880Z,50.43
2023-04-25T09:27:58.219Z,49.75
2023-04-25T09:32:20.985Z,48.65
2023-04-25T09:36:31.799Z,48.22
2023-04-25T09:40:53.407Z,46.44
2023-04-25T09:45:17.374Z,42.47
2023-04-25T09:49:19.122Z,40.58
2023-04-25T09:53:31.409Z,41.54
2023-04-25T09:58:09.555Z,41.99
2023-04-25T10:02:11.946Z,43.52
2023-04-25T10:06:18.537Z,43.30
2023-04-25T10:10:26.907Z,40.70
2023-04-25T10:14:28.194Z,40.11
2023-04-25T10:18:29.706Z,40.98
2023-04-25T10:22:36.685Z,41.72
2023-04-25T10:26:39.602Z,39.41
2023-04-25T10:30:39.901Z,37.30
2023-04-25T10:34:48.348Z,38.07
2023-04-25T10:38:51.702Z,37.70
2023-04-25T10:42:56.268Z,38.40
2023-04-25T10:46:58.811Z,38.64
2023-04-25T10:51:12.338Z,39.84
2023-04-25T10:55:13.398Z,40.49
2023-04-25T10:59:18.218Z,40.46
2023-04-25T11:03:21.015Z,40.25
2023-04-25T11:07:32.732Z,41.96
2023-04-25T11:11:34.170Z,40.38
2023-04-25T11:15:37.092Z,36.78
2023-04-25T11:19:37.893Z,36.47
2023-04-25T11:23:38.866Z,37.04
2023-04-25T11:27:43.823Z,38.35
2023-04-25T11:31:49.160Z,35.69
2023-04-25T11:35:49.397Z,32.79
2023-04-25T11:39:50.513Z,32.66
2023-04-25T11:43:53.332Z,34.10
2023-04-25T11:47:57.010Z,34.67
2023-04-25T11:51:57.211Z,34.22
2023-04-25T11:55:57.362Z,34.93
2023-04-25T11:59:57.592Z,35.87
2023-04-25T12:04:00.720Z,34.80
2023-04-25T12:08:01.433Z,36.75
2023-04-25T12:12:07.006Z,35.30
2023-04-25T12:16:07.908Z,35.23
2023-04-25T12:20:16.391Z,34.55
2023-04-25T12:24:20.504Z,33.45
2023-04-25T12:28:24.968Z,34.49
2023-04-25T12:32:26.326Z,34.82
2023-04-25T12:36:29.313Z,36.10
2023-04-25T12:40:29.703Z,37.06
2023-04-25T12:44:29.970Z,35.50
2023-04-25T12:48:30.138Z,34.40
2023-04-25T12:52:32.839Z,31.59
2023-04-25T12:56:33.430Z,31.37
2023-04-25T13:00:33.710Z,30.07
2023-04-25T13:04:34.152Z,30.40
2023-04-25T13:08:37.904Z,30.13
2023-04-25T13:12:38.161Z,29.78
2023-04-25T13:16:38.468Z,29.81
2023-04-25T13:20:38.815Z,31.13
2023-04-25T13:24:41.837Z,31.42
2023-04-25T13:28:43.600Z,31.97
2023-04-25T13:32:45.080Z,31.45
2023-04-25T13:36:45.299Z,31.96
2023-04-25T13:40:48.011Z,32.15
2023-04-25T13:44:48.169Z,30.85
2023-04-25T13:48:49.841Z,30.56
2023-04-25T13:52:50.010Z,30.66
2023-04-25T13:56:56.473Z,32.28
2023-04-25T14:00:56.596Z,32.11
2023-04-25T14:04:56.947Z,32.85
2023-04-25T14:08:57.568Z,33.37
2023-04-25T14:13:00.327Z,33.16
2023-04-25T14:17:00.520Z,33.03
2023-04-25T14:21:01.212Z,34.14
2023-04-25T14:25:02.109Z,33.28
2023-04-25T14:29:04.897Z,33.25
2023-04-25T14:33:05.151Z,33.37
2023-04-25T14:37:05.427Z,33.13
2023-04-25T14:41:05.958Z,32.34
2023-04-25T14:45:11.937Z,32.27
2023-04-25T14:49:12.397Z,33.17
2023-04-25T14:53:13.817Z,32.52
2023-04-25T14:57:14.490Z,33.28
2023-04-25T15:01:18.301Z,33.31
2023-04-25T15:05:18.992Z,33.34
2023-04-25T15:09:19.574Z,33.75
2023-04-25T15:13:21.803Z,34.13
2023-04-25T15:17:24.573Z,34.33
2023-04-25T15:21:24.823Z,35.15
2023-04-25T15:25:25.094Z,35.55
2023-04-25T15:29:25.744Z,36.23
2023-04-25T15:33:28.584Z,36.93
2023-04-25T15:37:28.778Z,36.06
2023-04-25T15:41:29.045Z,35.65
2023-04-25T15:45:29.911Z,36.79
2023-04-25T15:49:32.818Z,37.35
2023-04-25T15:53:33.131Z,37.23
2023-04-25T15:57:33.908Z,37.17
2023-04-25T16:01:35.012Z,37.47
2023-04-25T16:05:37.791Z,36.33
2023-04-25T16:09:39.214Z,36.96
2023-04-25T16:13:39.564Z,36.65
2023-04-25T16:17:40.678Z,36.45
2023-04-25T16:21:43.486Z,36.84
2023-04-25T16:25:44.603Z,37.00
2023-04-25T16:29:45.218Z,37.24
2023-04-25T16:33:48.557Z,36.71
2023-04-25T16:37:51.676Z,36.39
2023-04-25T16:41:52.213Z,36.22
2023-04-25T16:45:52.372Z,36.69
2023-04-25T16:49:53.318Z,37.10
2023-04-25T16:53:56.357Z,37.65
2023-04-25T16:57:56.505Z,37.53
2023-04-25T17:01:57.002Z,38.45
2023-04-25T17:06:01.403Z,37.70
2023-04-25T17:10:04.221Z,37.91
2023-04-25T17:14:04.419Z,37.91
2023-04-25T17:18:04.618Z,38.33
2023-04-25T17:22:04.905Z,37.50
2023-04-25T17:26:07.700Z,37.67
2023-04-25T17:30:10.124Z,37.52
2023-04-25T17:34:11.891Z,38.67
2023-04-25T17:38:12.356Z,38.14
2023-04-25T17:42:15.575Z,37.77
2023-04-25T17:46:15.949Z,37.78
2023-04-25T17:50:16.959Z,37.85
2023-04-25T17:54:18.513Z,38.26
2023-04-25T17:58:21.731Z,38.47
2023-04-25T18:02:22.263Z,39.10
2023-04-25T18:06:22.697Z,39.09
2023-04-25T18:10:23.149Z,39.57
2023-04-25T18:14:26.051Z,39.49
2023-04-25T18:18:33.351Z,39.90
2023-04-25T18:22:33.839Z,39.78
2023-04-25T18:26:34.429Z,40.26
2023-04-25T18:30:38.162Z,40.51
2023-04-25T18:34:41.723Z,40.81
2023-04-25T18:38:41.922Z,40.15
2023-04-25T18:42:42.848Z,40.38
2023-04-25T18:46:47.459Z,40.30
2023-04-25T18:50:47.676Z,40.46
2023-04-25T18:54:48.305Z,40.18
2023-04-25T18:58:48.838Z,40.31
2023-04-25T19:07:32.603Z,39.76
2023-04-25T19:11:32.956Z,40.09
2023-04-25T19:15:33.662Z,40.17
2023-04-25T19:19:34.169Z,40.34
2023-04-25T19:23:37.572Z,40.93
2023-04-25T19:27:37.872Z,41.06
2023-04-25T19:31:39.787Z,41.40
2023-04-25T19:35:40.200Z,42.02
2023-04-25T19:39:43.542Z,41.68
2023-04-25T19:43:43.939Z,41.76
2023-04-25T19:47:45.224Z,42.23
2023-04-25T19:51:46.523Z,42.83
2023-04-25T19:55:49.496Z,43.43
2023-04-25T19:59:49.922Z,43.69
2023-04-25T20:03:52.045Z,43.17
2023-04-25T20:07:53.116Z,42.79
2023-04-25T20:11:56.439Z,42.57
2023-04-25T20:15:56.639Z,42.89
2023-04-25T20:19:56.814Z,42.80
2023-04-25T20:23:58.188Z,42.80
2023-04-25T20:28:01.334Z,42.71
2023-04-25T20:32:03.558Z,42.65
2023-04-25T20:36:04.278Z,42.58
2023-04-25T20:40:06.725Z,42.31
2023-04-25T20:44:09.951Z,42.45
2023-04-25T20:48:10.923Z,42.14
2023-04-25T20:52:11.242Z,42.10
2023-04-25T20:56:13.041Z,41.60
2023-04-25T21:00:26.834Z,41.48
2023-04-25T21:04:27.320Z,41.09
2023-04-25T21:08:27.794Z,39.52
2023-04-25T21:12:28.097Z,39.57
2023-04-25T21:16:34.878Z,40.00
2023-04-25T21:20:36.207Z,40.84
2023-04-25T21:24:36.446Z,41.19
2023-04-25T21:28:36.797Z,41.97
2023-04-25T21:32:40.567Z,42.27
2023-04-25T21:36:41.478Z,42.80
2023-04-25T21:40:44.474Z,42.74
2023-04-25T21:44:44.791Z,42.14
2023-04-25T21:48:48.148Z,42.43
2023-04-25T21:52:48.631Z,42.06
2023-04-25T21:56:48.866Z,42.32
2023-04-25T22:00:49.345Z,42.22
2023-04-25T22:04:52.682Z,42.18
2023-04-25T22:08:53.333Z,41.95
2023-04-25T22:12:54.270Z,42.10
2023-04-25T22:16:54.636Z,42.41
2023-04-25T22:20:57.531Z,42.40
2023-04-25T22:24:57.729Z,42.44
2023-04-25T22:28:57.901Z,42.23
2023-04-25T22:32:58.249Z,42.62
2023-04-25T22:37:01.215Z,42.97
2023-04-25T22:41:01.684Z,42.95
2023-04-25T22:45:03.211Z,42.69
2023-04-25T22:49:03.405Z,43.40
2023-04-25T22:53:06.991Z,43.03
2023-04-25T22:57:10.190Z,43.38
2023-04-25T23:01:11.718Z,43.67
2023-04-25T23:05:13.303Z,43.46
2023-04-25T23:09:16.120Z,44.17
2023-04-25T23:13:16.874Z,44.38
2023-04-25T23:17:17.218Z,44.94
2023-04-25T23:21:17.467Z,45.26
2023-04-25T23:25:20.782Z,46.21
2023-04-25T23:29:21.174Z,46.81
2023-04-25T23:33:21.395Z,47.21
2023-04-25T23:37:21.651Z,47.14
2023-04-25T23:41:25.489Z,48.01
2023-04-25T23:45:25.671Z,48.54
2023-04-25T23:49:26.042Z,48.61
2023-04-25T23:53:26.388Z,48.54
2023-04-25T23:57:29.599Z,48.38
